Godella, Spain
Current Conditions -  °F | °C
As of 5:00 PM on Thursday 23 Oct 2014 (Local Time) from LEVC Reporting Station
Clear Clear  
Wind Chill: 81°   Ceiling: Unl
Heat Index: 81°   Visibility: 6mi
Dew Point: 50°   Wind: 13mph
Humidity: 34%   Direction: 120°ESE
Pressure: 30"   Gusts: NA
Location:  39.53°N, 0.42°W
Report Text: LEVC 231500Z 12011KT CAVOK 27/10 Q1016 NOSIG
Loading
Personal Weather Stations






























Interactive Weather Map
Tropical Storm Tracking
New forecast layout! Learn more

10-Day Weather Forecast

Advertisements
Track Severe Weather on mobile